MST,Max TemperatureF,Mean TemperatureF,Min TemperatureF,Max Dew PointF,MeanDew PointF,Min DewpointF,Max Humidity, Mean Humidity, Min Humidity, Max Sea Level PressureIn, Mean Sea Level PressureIn, Min Sea Level PressureIn, Max VisibilityMiles, Mean VisibilityMiles, Min VisibilityMiles, Max Wind SpeedMPH, Mean Wind SpeedMPH, Max Gust SpeedMPH,PrecipitationIn, CloudCover, Events, WindDirDegrees
2013-1-1,22,10,-2,11,4,-4,95,79,62,30.54,30.33,30.12,10,9,4,12,5,13,T,4,Snow,147
2013-1-2,21,8,-6,9,1,-9,100,77,54,30.58,30.50,30.38,10,10,10,12,5,12,0.00,1,,146
2013-1-3,20,6,-9,5,-3,-10,87,69,51,30.72,30.62,30.55,10,10,8,13,6,14,0.00,0,,153
2013-1-4,21,8,-6,5,-2,-9,87,66,45,30.66,30.53,30.41,10,10,7,10,5,10,0.00,0,,151
2013-1-5,25,9,-7,7,-1,-9,91,67,42,30.72,30.60,30.51,10,10,7,10,5,12,0.00,0,Snow,149
2013-1-6,21,9,-4,9,3,-6,83,73,62,30.59,30.44,30.30,10,10,7,10,5,10,0.00,0,,140
2013-1-7,30,15,0,12,3,-2,87,69,50,30.35,30.28,30.19,10,10,8,10,5,10,0.00,0,,151
2013-1-8,29,15,0,15,7,-2,84,67,50,30.54,30.35,30.19,10,10,2,13,5,14,0.00,0,,153
2013-1-9,39,21,3,18,10,2,88,61,34,30.60,30.44,30.22,10,10,7,13,5,14,0.00,0,,157
2013-1-10,48,29,9,27,17,4,84,62,40,30.18,29.85,29.50,10,10,10,30,7,37,0.00,2,,151
2013-1-11,40,23,5,30,13,-1,73,58,42,30.04,29.66,29.35,10,8,1,33,10,44,T,4,Snow,218
2013-1-12,20,9,-3,5,-1,-9,87,69,51,30.15,30.08,30.01,10,10,10,13,5,14,T,3,,149
2013-1-13,15,9,2,10,6,-4,92,75,58,30.21,30.06,29.92,10,4,1,12,4,14,0.01,8,Snow,351
2013-1-14,13,2,-9,3,-2,-12,95,78,61,30.50,30.22,30.03,10,6,2,12,4,13,T,6,Snow,156
2013-1-15,14,1,-13,1,-7,-17,83,70,57,30.75,30.64,30.52,10,10,9,12,4,13,0.00,3,,149
2013-1-16,25,11,-4,7,0,-8,87,67,46,30.76,30.69,30.59,10,10,7,10,4,12,0.00,0,,158
2013-1-17,32,17,2,14,8,-1,88,67,45,30.77,30.65,30.54,10,10,9,9,4,9,0.00,0,,163
2013-1-18,36,19,1,19,9,-1,88,70,51,30.66,30.55,30.43,10,10,10,10,5,12,0.00,0,,152
2013-1-19,38,21,4,18,8,-1,88,64,40,30.66,30.55,30.46,10,10,10,13,5,14,0.00,0,,151
2013-1-20,35,19,2,16,6,-2,80,61,42,30.60,30.50,30.39,10,10,9,10,5,12,0.00,0,,155
2013-1-21,38,22,6,17,8,1,80,59,37,30.58,30.48,30.39,10,10,10,10,5,12,0.00,0,,159
2013-1-22,40,22,4,17,8,0,80,56,32,30.57,30.49,30.40,10,10,10,10,5,14,0.00,0,,155
2013-1-23,37,20,3,17,9,0,84,60,35,30.60,30.50,30.41,10,10,10,14,5,15,0.00,0,,147
2013-1-24,39,28,16,28,21,14,84,68,52,30.44,30.38,30.33,10,9,4,9,3,10,T,6,Snow,103
2013-1-25,39,35,30,34,31,28,100,90,79,30.36,30.30,30.23,10,4,2,8,2,15,0.01,8,Snow,347
2013-1-26,37,34,30,37,34,30,100,96,92,30.24,30.00,29.83,4,2,0,6,1,7,0.46,8,Fog-Rain,164
2013-1-27,50,42,33,39,33,25,100,70,39,29.96,29.86,29.73,10,5,0,29,4,45,0.00,6,Fog,182
2013-1-28,44,35,25,34,29,20,100,76,52,29.83,29.76,29.65,10,6,0,21,7,25,0.09,7,Fog-Rain-Snow,333
2013-1-29,27,24,20,19,15,9,91,69,46,30.13,29.92,29.81,10,10,9,16,5,20,T,6,Snow,317
2013-1-30,29,22,15,24,16,9,91,75,58,30.27,30.22,30.15,10,10,10,31,4,32,T,7,,198
2013-1-31,44,34,24,25,22,19,92,66,39,30.40,30.30,30.22,10,10,10,8,1,10,0.00,4,,114